F/V Le Natif 2 — FKVW — position and weather

sailwx.info

Track history (hours):
 
Tides and Currents Weather Stations Pressure Air Temp Water Temp Dewpoint Dewpoint Depression Visibility Wind Speed Wind Dir Waves Ship Positions

F/V Le Natif 2

Last reported at 2016-Jul-22 18:32 UTC. Time now 2016-Jul-24 02:58 UTC.
Position N 46°12' W 002°01'.

Length 16 m.

Type: Fishing. MMSI: 228131600.

Date/timePositionNaut miles runAvg speedWind from/ knotsBaromVisibWave heightAir tempDewpointWater temp
2016-Jul-22 18:32N 46°12' W 002°01'10 9.9
2016-Jul-22 17:33N 46°21' W 001°54'10 9.6
2016-Jul-22 16:33N 46°29' W 001°47'1 0.7
2016-Jul-22 15:33N 46°30' W 001°47'0 0.2
2016-Jul-22 14:33N 46°30' W 001°48'9 9.4
2016-Jul-22 13:33N 46°21' W 001°52'12 0.4
2016-Jul-21 06:26N 46°19' W 002°10'8 9.3
2016-Jul-21 05:33N 46°26' W 002°06'9 9.0
2016-Jul-21 04:33N 46°35' W 002°01'8 7.7
2016-Jul-21 03:33N 46°42' W 001°57'0 0.0
2016-Jul-20 10:33N 46°42' W 001°57'0 0.0
2016-Jul-20 09:33N 46°42' W 001°57'0 0.0
2016-Jul-20 08:34N 46°42' W 001°57'0 0.0
2016-Jul-20 07:32N 46°42' W 001°57'0 0.0
2016-Jul-20 06:34N 46°42' W 001°57'0 0.1
2016-Jul-20 05:26N 46°42' W 001°56'0 0.1
2016-Jul-20 04:32N 46°42' W 001°56'2 1.9
2016-Jul-20 03:33N 46°40' W 001°58'1 0.6
2016-Jul-20 02:34N 46°41' W 001°58'1 0.1
2016-Jul-19 16:17N 46°42' W 001°56'  
Track history (hours):
 
Tides and Currents Weather Stations Pressure Air Temp Water Temp Dewpoint Dewpoint Depression Visibility Wind Speed Wind Dir Waves Ship Positions

F/V Le Natif 2

Last reported at 2016-Jul-22 18:32 UTC. Time now 2016-Jul-24 02:58 UTC.
Position N 46°12' W 002°01'.

Length 16 m.

Type: Fishing. MMSI: 228131600.

Date/timePositionNaut miles runAvg speedWind from/ knotsBaromVisibWave heightAir tempDewpointWater temp
2016-Jul-22 18:32N 46°12' W 002°01'10 9.9
2016-Jul-22 17:33N 46°21' W 001°54'10 9.6
2016-Jul-22 16:33N 46°29' W 001°47'1 0.7
2016-Jul-22 15:33N 46°30' W 001°47'0 0.2
2016-Jul-22 14:33N 46°30' W 001°48'9 9.4
2016-Jul-22 13:33N 46°21' W 001°52'12 0.4
2016-Jul-21 06:26N 46°19' W 002°10'8 9.3
2016-Jul-21 05:33N 46°26' W 002°06'9 9.0
2016-Jul-21 04:33N 46°35' W 002°01'8 7.7
2016-Jul-21 03:33N 46°42' W 001°57'0 0.0
2016-Jul-20 10:33N 46°42' W 001°57'0 0.0
2016-Jul-20 09:33N 46°42' W 001°57'0 0.0
2016-Jul-20 08:34N 46°42' W 001°57'0 0.0
2016-Jul-20 07:32N 46°42' W 001°57'0 0.0
2016-Jul-20 06:34N 46°42' W 001°57'0 0.1
2016-Jul-20 05:26N 46°42' W 001°56'0 0.1
2016-Jul-20 04:32N 46°42' W 001°56'2 1.9
2016-Jul-20 03:33N 46°40' W 001°58'1 0.6
2016-Jul-20 02:34N 46°41' W 001°58'1 0.1
2016-Jul-19 16:17N 46°42' W 001°56'  

Dump ship's entire track history